Pedro Bay, AK

01:53 PM AKDT em 30 de Setembro de 2014 (GMT -0800)
Iliamna | Change Station
CLOSE
Current Station
Aeroporto
Location: Iliamna,
Altitude: 161 ft
Estações Meteorológicas Próximas

Elev 161 ft 59.75 °N, 154.91 °W | Updated 1 hour ago

Clear
Céu Limpo
47 °F
Aparente 47 °F
N
15
Vento Variável Vento de NNO
Gusts 23 mph

Hoje
Máxima -- | Mínima -- °F
--% Possibilidade de Precip.
Ontem
Máxima -- | Mínima -- °F
Precip. -- pol
8:23 AM 7:54 PM
Quarto crescente, 40% visible
Pressão 30.33 pol
Visibilidade 10.0 milhas
Nuvens Céu Limpo
Ponto de Orvalho 28 °F
Humidade 48%
Chuva 0.00 pol
Altura de Neve 0 in , 1 in , 19 in
UV 2 em vez de 12
Pólen Não disponível
Qualidade do Ar Não disponível
Flu Activity Não disponível
METAR PAIL 302053Z 34013G20KT 10SM CLR 08/M02 A3032 RMK AO2 SLP270 T00831022 50002 $

More Conditions Fewer Conditions

Pressão 30.33 pol
Visibilidade 10.0 milhas
Nuvens Céu Limpo
Ponto de Orvalho 28 °F
Humidade 48%
Chuva 0.00 pol
Altura de Neve 0 in , 1 in , 19 in
UV 2 em vez de 12
Pólen Não disponível
Qualidade do Ar Não disponível
Flu Activity Não disponível
METAR PAIL 302053Z 34013G20KT 10SM CLR 08/M02 A3032 RMK AO2 SLP270 T00831022 50002 $

More Conditions Fewer Conditions

10-Day Weather Forecast

Almanac

Astronomia

Sep. 30, 2014 Nascer Pôr
Hora atual 08:23 AKDT 19:54 AKDT
Crepúsculo civil 07:42 AKDT 20:35 AKDT
Crepúsculo náutico 06:53 AKDT 21:23 AKDT
Crepúsculo astronómico 06:02 AKDT 22:14 AKDT
Lua 15:51 AKDT 23:26 AKDT
Comprimento da luz visível 12h 53m
Duração do Dia
11h 31m
Tomorrow will be 5m 21s shorter.
Quarto crescente, 40% of the Moon is Illuminated
Hoje
Quarto crescente
Out 1
Quarto crescente
Out 8
Lua cheia
Out 15
Quarto minguante
Out 23
Nova

Extremos de Hoje

situação na parte mais alta situação na parte mais baixa

Community

WunderPhotos

Upload Photos

1,757,755 fotografias inseridas!

Nearby

Altura da Neve

Estação altura Altitude
Atigun Pass 17 in 4800 ft
Monument Creek 0 in 1850 ft
Mcneil Canyon 1 in 1320 ft
Upper Chena 19 in 2850 ft
Turnagain Pass 1 in 1880 ft

Actividade Sísmisca

Cidade Distância Mag. Hora & Data
Não há notícias de atividade sísmica recente perto de si.
Mínima magnitude apresentada é 2.5.

Temperaturas das Águas Costeiras

Local Temperatura
Não há estações a reportar dados

Estações Meteorológicas Próximas